Time;durP1;ratioP1;P1;durP2;ratioP2;P2;SDS_P1;SDS_P2;PMS_P1;PMS_P2;Temp;Humidity;BMP_temperature;BMP_pressure;BME280_temperature;BME280_humidity;BME280_pressure;Samples;Min_cycle;Max_cycle;Signal;HPM_P1;HPM_P2
2022/05/22 00:00:26;;;;;;;0.40;0.40;;;12.50;99.90;;;;;;5058108;28;20948;-70
2022/05/22 00:03:15;;;;;;;0.40;0.40;;;12.50;99.90;;;;;;5057864;28;20804;-70
2022/05/22 00:06:03;;;;;;;0.50;0.50;;;12.50;99.90;;;;;;5058396;28;20416;-70
2022/05/22 00:08:51;;;;;;;0.40;0.40;;;12.40;99.90;;;;;;5058935;28;20972;-71
2022/05/22 00:11:39;;;;;;;0.50;0.50;;;12.40;99.90;;;;;;5058007;28;20432;-69
2022/05/22 00:14:29;;;;;;;0.80;0.80;;;12.40;99.90;;;;;;5058154;28;20966;-71
2022/05/22 00:17:17;;;;;;;0.40;0.40;;;12.30;99.90;;;;;;5058741;28;20435;-70
2022/05/22 00:20:06;;;;;;;0.50;0.50;;;12.30;99.90;;;;;;5058315;28;20491;-70
2022/05/22 00:22:54;;;;;;;0.50;0.50;;;12.30;99.90;;;;;;5058029;28;20440;-69
2022/05/22 00:25:42;;;;;;;0.40;0.40;;;12.20;99.90;;;;;;5067035;28;20474;-71
2022/05/22 00:28:30;;;;;;;0.50;0.50;;;12.20;99.90;;;;;;5076945;28;20955;-69
2022/05/22 00:31:20;;;;;;;0.97;0.97;;;12.30;99.90;;;;;;5077422;28;20834;-68
2022/05/22 00:34:09;;;;;;;0.40;0.40;;;12.30;99.90;;;;;;5077469;28;20786;-70
2022/05/22 00:36:57;;;;;;;0.40;0.40;;;12.30;99.90;;;;;;5077110;28;20423;-69
2022/05/22 00:39:45;;;;;;;0.40;0.40;;;12.30;99.90;;;;;;5079360;28;20419;-70
2022/05/22 00:42:34;;;;;;;0.60;0.60;;;12.30;99.90;;;;;;5077344;28;20498;-70
2022/05/22 00:45:22;;;;;;;0.50;0.50;;;12.30;99.90;;;;;;5077170;28;20458;-72
2022/05/22 00:48:11;;;;;;;0.40;0.40;;;12.30;99.90;;;;;;5076315;28;20465;-72
2022/05/22 00:51:03;;;;;;;0.40;0.40;;;12.20;99.90;;;;;;5074389;28;20823;-69
2022/05/22 00:53:55;;;;;;;0.87;0.87;;;12.10;99.90;;;;;;5075151;28;20451;-72
2022/05/22 00:56:48;;;;;;;0.40;0.40;;;12.10;99.90;;;;;;5073909;28;20423;-68
2022/05/22 00:59:40;;;;;;;0.50;0.50;;;12.00;99.90;;;;;;5074446;28;20423;-71
2022/05/22 01:03:26;;;;;;;0.40;0.40;;;11.90;99.90;;;;;;5073588;28;20451;-70
2022/05/22 01:05:39;;;;;;;0.40;0.40;;;11.90;99.90;;;;;;5073571;28;20540;-70
2022/05/22 01:08:27;;;;;;;0.40;0.40;;;11.80;99.90;;;;;;5073888;28;20492;-68
2022/05/22 01:11:19;;;;;;;0.50;0.50;;;11.70;99.90;;;;;;5073927;28;20419;-70
2022/05/22 01:14:11;;;;;;;0.50;0.50;;;11.70;99.90;;;;;;5073834;28;20430;-71
2022/05/22 01:17:01;;;;;;;0.50;0.50;;;11.60;99.90;;;;;;5073569;28;20454;-71
2022/05/22 01:19:57;;;;;;;0.50;0.50;;;11.60;99.90;;;;;;5073426;28;20506;-70
2022/05/22 01:22:47;;;;;;;0.67;0.67;;;11.50;99.90;;;;;;5072935;28;20885;-69
2022/05/22 01:25:37;;;;;;;0.50;0.50;;;11.50;99.90;;;;;;5064842;28;20472;-71
2022/05/22 01:28:25;;;;;;;0.50;0.50;;;11.50;99.90;;;;;;5053517;28;20424;-71
2022/05/22 01:31:13;;;;;;;0.50;0.50;;;11.50;99.90;;;;;;5054409;28;20928;-70
2022/05/22 01:34:02;;;;;;;0.50;0.50;;;11.60;99.90;;;;;;5053461;28;20459;-69
2022/05/22 01:36:50;;;;;;;0.50;0.50;;;11.70;99.90;;;;;;5052893;28;20834;-70
2022/05/22 01:39:39;;;;;;;0.40;0.40;;;11.70;99.90;;;;;;5053782;28;21063;-69
2022/05/22 01:42:29;;;;;;;12.20;2.10;;;11.70;99.90;;;;;;5052982;28;20793;-71
2022/05/22 01:45:22;;;;;;;0.47;0.47;;;11.70;99.90;;;;;;5052363;28;20471;-70
2022/05/22 01:48:11;;;;;;;0.40;0.40;;;11.70;99.90;;;;;;5033555;28;20409;-72
2022/05/22 01:50:59;;;;;;;0.50;0.50;;;11.70;99.90;;;;;;5032680;28;20422;-70
2022/05/22 01:53:47;;;;;;;0.40;0.40;;;11.50;99.90;;;;;;5032818;28;21049;-69
2022/05/22 01:56:38;;;;;;;0.50;0.50;;;11.70;99.90;;;;;;5032661;28;20425;-70
2022/05/22 01:59:27;;;;;;;0.60;0.60;;;11.70;99.90;;;;;;5034207;28;20425;-68
2022/05/22 02:02:15;;;;;;;0.53;0.53;;;11.70;99.90;;;;;;5032617;28;20437;-70
2022/05/22 02:05:04;;;;;;;0.40;0.40;;;11.70;99.90;;;;;;5033862;28;20463;-70
2022/05/22 02:11:00;;;;;;;0.50;0.50;;;11.80;99.90;;;;;;5033406;28;20417;-68
2022/05/22 02:13:50;;;;;;;0.43;0.43;;;11.90;99.90;;;;;;5031924;28;20827;-69
2022/05/22 02:16:38;;;;;;;0.40;0.40;;;11.70;99.90;;;;;;5031714;28;20413;-69
2022/05/22 02:19:26;;;;;;;0.40;0.40;;;11.70;99.90;;;;;;5032482;28;20914;-70
2022/05/22 02:22:14;;;;;;;0.40;0.40;;;11.70;99.90;;;;;;5031426;28;20986;-70
2022/05/22 02:25:03;;;;;;;0.50;0.50;;;11.70;99.90;;;;;;5040738;28;20452;-68
2022/05/22 02:27:51;;;;;;;0.50;0.50;;;11.60;99.90;;;;;;5073054;28;20416;-71
2022/05/22 02:30:43;;;;;;;0.40;0.40;;;11.50;99.90;;;;;;5072221;28;20427;-70
2022/05/22 02:33:31;;;;;;;0.73;0.73;;;11.50;99.90;;;;;;5070940;28;20455;-71
2022/05/22 02:36:19;;;;;;;0.40;0.40;;;11.50;99.90;;;;;;5071902;28;20944;-71
2022/05/22 02:39:07;;;;;;;0.50;0.50;;;11.30;99.90;;;;;;5072784;28;20435;-69
2022/05/22 02:42:01;;;;;;;0.50;0.50;;;11.40;99.90;;;;;;5073479;28;20438;-69
2022/05/22 02:44:49;;;;;;;0.40;0.40;;;11.30;99.90;;;;;;5072506;28;20469;-70
2022/05/22 02:47:38;;;;;;;0.50;0.50;;;11.20;99.90;;;;;;5070746;28;20423;-70
2022/05/22 02:50:29;;;;;;;0.40;0.40;;;11.20;99.90;;;;;;5071542;28;20420;-69
2022/05/22 02:53:17;;;;;;;0.43;0.43;;;11.10;99.90;;;;;;5071350;28;20443;-69
2022/05/22 02:56:09;;;;;;;0.40;0.40;;;11.10;99.90;;;;;;5070603;28;20419;-69
2022/05/22 02:58:58;;;;;;;0.50;0.50;;;11.00;99.90;;;;;;5071223;28;20974;-69
2022/05/22 03:01:46;;;;;;;0.50;0.50;;;11.00;99.90;;;;;;5071296;28;20432;-72
2022/05/22 03:04:35;;;;;;;1.17;1.17;;;10.90;99.90;;;;;;5071937;28;20431;-71
2022/05/22 03:07:24;;;;;;;0.50;0.50;;;11.00;99.90;;;;;;5071102;28;20419;-70
2022/05/22 03:10:15;;;;;;;0.50;0.50;;;10.90;99.90;;;;;;5071776;28;20951;-70
2022/05/22 03:13:03;;;;;;;0.43;0.43;;;10.90;99.90;;;;;;5069892;28;20447;-70
2022/05/22 03:15:51;;;;;;;0.40;0.40;;;10.90;99.90;;;;;;5070667;28;20446;-71
2022/05/22 03:18:39;;;;;;;0.50;0.50;;;10.90;99.90;;;;;;5070576;28;20430;-70
2022/05/22 03:21:29;;;;;;;1.07;1.07;;;10.80;99.90;;;;;;5071660;28;20419;-68
2022/05/22 03:24:17;;;;;;;0.80;0.50;;;10.80;99.90;;;;;;5072840;28;20458;-71
2022/05/22 03:27:07;;;;;;;0.40;0.40;;;10.80;99.90;;;;;;5030842;28;20866;-71
2022/05/22 03:29:55;;;;;;;0.40;0.40;;;10.80;99.90;;;;;;5032427;28;20498;-71
2022/05/22 03:32:44;;;;;;;0.50;0.50;;;10.80;99.90;;;;;;5031398;28;20468;-68
2022/05/22 03:35:32;;;;;;;0.40;0.40;;;10.80;99.90;;;;;;5031253;28;20449;-70
2022/05/22 03:38:21;;;;;;;0.50;0.50;;;10.80;99.90;;;;;;5031464;28;20432;-68
2022/05/22 03:41:09;;;;;;;0.40;0.40;;;10.80;99.90;;;;;;5031635;28;20434;-68
2022/05/22 03:43:57;;;;;;;0.47;0.47;;;10.80;99.90;;;;;;5047959;28;20450;-69
2022/05/22 03:46:46;;;;;;;0.40;0.40;;;10.80;99.90;;;;;;5070656;28;20821;-69
2022/05/22 03:49:34;;;;;;;0.43;0.43;;;10.70;99.90;;;;;;5071001;28;20446;-68
2022/05/22 03:52:22;;;;;;;0.40;0.40;;;10.70;99.90;;;;;;5070114;28;21025;-70
2022/05/22 03:55:14;;;;;;;0.47;0.47;;;10.70;99.90;;;;;;5071057;28;20427;-69
2022/05/22 03:58:03;;;;;;;0.40;0.40;;;10.70;99.90;;;;;;5070881;28;20420;-70
2022/05/22 04:00:51;;;;;;;0.40;0.40;;;10.80;99.90;;;;;;5071505;28;20419;-69
2022/05/22 04:03:39;;;;;;;0.40;0.40;;;10.70;99.90;;;;;;5069935;28;20442;-69
2022/05/22 04:06:27;;;;;;;0.47;0.47;;;10.70;99.90;;;;;;5071878;28;20469;-69
2022/05/22 04:09:15;;;;;;;0.40;0.40;;;10.70;99.90;;;;;;5070746;28;20423;-69
2022/05/22 04:12:08;;;;;;;0.40;0.40;;;10.80;99.90;;;;;;5069797;28;20451;-68
2022/05/22 04:14:57;;;;;;;0.40;0.40;;;10.80;99.90;;;;;;5070555;28;20477;-68
2022/05/22 04:17:45;;;;;;;0.40;0.40;;;10.80;99.90;;;;;;5070590;28;20431;-69
2022/05/22 04:20:33;;;;;;;0.40;0.40;;;10.90;99.90;;;;;;5070412;28;20442;-68
2022/05/22 04:26:32;;;;;;;0.70;0.70;;;11.00;99.90;;;;;;5059035;28;20466;-69
2022/05/22 04:29:21;;;;;;;13.63;1.33;;;11.00;99.90;;;;;;5055351;28;20417;-69
2022/05/22 04:32:09;;;;;;;0.50;0.50;;;11.20;99.90;;;;;;5055060;28;20664;-69
2022/05/22 04:34:57;;;;;;;0.40;0.40;;;11.10;99.90;;;;;;5055352;28;20416;-69
2022/05/22 04:37:46;;;;;;;2.20;2.10;;;11.20;99.90;;;;;;5054698;28;20419;-69
2022/05/22 04:40:34;;;;;;;0.40;0.40;;;11.20;99.90;;;;;;5055263;28;20905;-69
2022/05/22 04:43:23;;;;;;;0.60;0.60;;;11.20;99.90;;;;;;5057241;28;20455;-69
2022/05/22 04:46:12;;;;;;;0.40;0.40;;;11.10;99.90;;;;;;5054445;28;20833;-69
2022/05/22 04:49:00;;;;;;;3.23;1.00;;;11.20;99.90;;;;;;5054702;28;20424;-70
2022/05/22 04:51:49;;;;;;;0.40;0.40;;;11.10;99.90;;;;;;5054864;28;20416;-68
2022/05/22 04:54:37;;;;;;;0.87;0.70;;;11.00;99.90;;;;;;5054657;28;20424;-68
2022/05/22 04:57:25;;;;;;;0.50;0.50;;;11.10;99.90;;;;;;5054537;28;20975;-68
2022/05/22 05:00:14;;;;;;;0.57;0.57;;;11.30;99.90;;;;;;5053703;28;20429;-69
2022/05/22 05:03:03;;;;;;;0.50;0.50;;;11.20;99.90;;;;;;5053468;28;20505;-69
2022/05/22 05:05:57;;;;;;;0.87;0.83;;;11.30;99.90;;;;;;5054213;28;20432;-69
2022/05/22 05:08:45;;;;;;;0.90;0.77;;;11.30;99.90;;;;;;5054668;28;20865;-69
2022/05/22 05:11:33;;;;;;;0.50;0.50;;;11.40;99.90;;;;;;5053964;28;20861;-69
2022/05/22 05:14:21;;;;;;;0.70;0.60;;;11.40;99.90;;;;;;5054976;28;20424;-69
2022/05/22 05:17:10;;;;;;;0.40;0.40;;;11.60;99.90;;;;;;5054029;28;20428;-68
2022/05/22 05:20:00;;;;;;;0.50;0.50;;;11.70;99.90;;;;;;5054440;28;20427;-70
2022/05/22 05:22:48;;;;;;;0.47;0.47;;;11.60;99.90;;;;;;5053733;28;20864;-69
2022/05/22 05:25:36;;;;;;;0.40;0.40;;;11.80;99.90;;;;;;5062739;28;20432;-68
2022/05/22 05:28:24;;;;;;;0.40;0.40;;;12.00;99.90;;;;;;5073381;28;20467;-69
2022/05/22 05:31:12;;;;;;;0.40;0.40;;;11.80;99.90;;;;;;5072761;28;20423;-70
2022/05/22 05:34:00;;;;;;;1.37;1.37;;;11.90;99.90;;;;;;5072755;28;20503;-68
2022/05/22 05:36:50;;;;;;;7.93;0.97;;;11.90;99.90;;;;;;5072628;28;20424;-69
2022/05/22 05:39:38;;;;;;;0.50;0.50;;;11.80;99.90;;;;;;5073356;28;20426;-68
2022/05/22 05:42:32;;;;;;;0.40;0.40;;;11.80;99.90;;;;;;5072757;28;20868;-69
2022/05/22 05:45:21;;;;;;;0.50;0.50;;;11.90;99.90;;;;;;5072929;28;20423;-69
2022/05/22 05:48:09;;;;;;;0.40;0.40;;;11.90;99.90;;;;;;5074457;28;20471;-68
2022/05/22 05:50:58;;;;;;;0.50;0.50;;;12.10;99.90;;;;;;5073068;28;20427;-69
2022/05/22 05:53:47;;;;;;;0.60;0.47;;;12.10;99.90;;;;;;5072505;28;20446;-70
2022/05/22 05:56:38;;;;;;;0.40;0.40;;;12.20;99.90;;;;;;5072841;28;20806;-69
2022/05/22 05:59:27;;;;;;;0.40;0.40;;;12.30;99.90;;;;;;5073065;28;20458;-69
2022/05/22 06:02:17;;;;;;;0.60;0.60;;;12.30;99.90;;;;;;5072382;28;20973;-68
2022/05/22 06:05:06;;;;;;;0.53;0.53;;;12.40;99.90;;;;;;5073515;28;20951;-70
2022/05/22 06:07:54;;;;;;;0.40;0.40;;;12.50;99.90;;;;;;5073705;28;20467;-68
2022/05/22 06:10:44;;;;;;;0.40;0.40;;;12.60;99.90;;;;;;5072557;28;20424;-69
2022/05/22 06:13:32;;;;;;;0.60;0.60;;;12.50;99.90;;;;;;5073250;28;20443;-68
2022/05/22 06:16:20;;;;;;;0.80;0.63;;;12.60;99.90;;;;;;5072931;28;20955;-68
2022/05/22 06:19:08;;;;;;;0.40;0.40;;;12.70;99.90;;;;;;5072067;28;20426;-69
2022/05/22 06:21:56;;;;;;;0.50;0.50;;;12.80;99.90;;;;;;5072133;28;20480;-69
2022/05/22 06:24:45;;;;;;;0.40;0.40;;;12.90;99.90;;;;;;5070846;28;20481;-69
2022/05/22 06:27:34;;;;;;;0.40;0.40;;;13.20;99.90;;;;;;5053435;28;20553;-69
2022/05/22 06:30:24;;;;;;;1.03;0.73;;;13.30;99.90;;;;;;5052606;28;20443;-69
2022/05/22 06:33:16;;;;;;;0.50;0.50;;;13.40;99.90;;;;;;5052880;28;20467;-69
2022/05/22 06:36:08;;;;;;;0.40;0.40;;;13.50;99.90;;;;;;5053399;28;20431;-68
2022/05/22 06:42:01;;;;;;;0.40;0.40;;;13.70;99.90;;;;;;5053509;28;20447;-68
2022/05/22 06:44:57;;;;;;;1.10;1.10;;;14.00;99.90;;;;;;5053900;28;20420;-68
2022/05/22 06:47:45;;;;;;;0.50;0.50;;;14.20;99.90;;;;;;5051464;28;20471;-69
2022/05/22 06:50:33;;;;;;;0.50;0.50;;;14.30;99.90;;;;;;5053535;28;20432;-69
2022/05/22 06:53:22;;;;;;;0.40;0.40;;;14.40;99.90;;;;;;5052728;28;20979;-69
2022/05/22 06:56:10;;;;;;;0.40;0.40;;;14.50;99.90;;;;;;5053074;28;20420;-69
2022/05/22 06:58:58;;;;;;;1.60;1.60;;;14.60;99.90;;;;;;5053287;28;20834;-68
2022/05/22 07:01:47;;;;;;;0.40;0.40;;;14.80;99.90;;;;;;5052265;28;20490;-69
2022/05/22 07:04:36;;;;;;;1.93;1.13;;;15.00;99.90;;;;;;5053034;28;20588;-69
2022/05/22 07:07:24;;;;;;;0.70;0.50;;;15.20;99.90;;;;;;5052939;28;20848;-69
2022/05/22 07:10:12;;;;;;;0.40;0.40;;;15.30;99.90;;;;;;5052653;28;20478;-68
2022/05/22 07:13:00;;;;;;;2.30;2.20;;;15.20;99.90;;;;;;5052345;28;20220;-70
2022/05/22 07:15:57;;;;;;;11.93;1.47;;;15.10;99.90;;;;;;5052582;28;20430;-69
2022/05/22 07:19:09;;;;;;;0.50;0.50;;;15.10;99.90;;;;;;5052386;28;20320;-69
2022/05/22 07:21:57;;;;;;;0.40;0.40;;;15.20;99.90;;;;;;5052093;28;20263;-69
2022/05/22 07:24:45;;;;;;;0.50;0.50;;;15.20;99.90;;;;;;5053418;28;20443;-69
2022/05/22 07:27:33;;;;;;;0.80;0.80;;;15.30;99.90;;;;;;5071587;28;20876;-69
2022/05/22 07:30:21;;;;;;;0.50;0.50;;;15.30;99.90;;;;;;5072353;28;20438;-70
2022/05/22 07:33:09;;;;;;;1.13;0.93;;;15.50;99.90;;;;;;5071114;28;20493;-70
2022/05/22 07:36:00;;;;;;;0.40;0.40;;;15.50;99.90;;;;;;5072501;28;20219;-69
2022/05/22 07:38:49;;;;;;;2.10;0.77;;;15.60;99.90;;;;;;5072024;28;20201;-70
2022/05/22 07:41:37;;;;;;;0.40;0.40;;;15.70;99.90;;;;;;5071424;28;20446;-68
2022/05/22 07:44:25;;;;;;;0.90;0.50;;;15.80;99.90;;;;;;5071951;28;20427;-71
2022/05/22 07:47:13;;;;;;;0.40;0.40;;;15.90;99.90;;;;;;5071215;28;20296;-68
2022/05/22 07:50:20;;;;;;;0.40;0.40;;;15.80;99.90;;;;;;5072139;28;20204;-69
2022/05/22 07:53:10;;;;;;;0.40;0.40;;;15.90;99.90;;;;;;5071768;28;20441;-68
2022/05/22 07:55:59;;;;;;;0.40;0.40;;;16.20;99.90;;;;;;5071724;28;20435;-69
2022/05/22 07:58:47;;;;;;;1.90;1.80;;;16.20;99.90;;;;;;5073711;28;20326;-69
2022/05/22 08:01:35;;;;;;;0.50;0.50;;;16.30;99.90;;;;;;5074812;28;20251;-69
2022/05/22 08:04:23;;;;;;;0.73;0.70;;;16.50;99.90;;;;;;5075612;28;20197;-69
2022/05/22 08:07:12;;;;;;;0.40;0.40;;;16.50;99.90;;;;;;5076087;28;20633;-68
2022/05/22 08:10:01;;;;;;;0.40;0.40;;;16.50;99.90;;;;;;5075022;28;20204;-69
2022/05/22 08:12:50;;;;;;;0.40;0.40;;;16.50;99.90;;;;;;5075026;28;20235;-68
2022/05/22 08:15:40;;;;;;;0.50;0.50;;;16.50;99.90;;;;;;5075390;28;20200;-69
2022/05/22 08:18:28;;;;;;;2.93;2.60;;;16.50;99.90;;;;;;5076672;28;20196;-69
2022/05/22 08:21:16;;;;;;;0.40;0.40;;;16.60;99.90;;;;;;5074960;28;20676;-70
2022/05/22 08:24:05;;;;;;;0.40;0.40;;;16.80;99.90;;;;;;5074775;28;20200;-72
2022/05/22 08:26:54;;;;;;;0.40;0.40;;;16.90;99.90;;;;;;5054407;28;20201;-70
2022/05/22 08:29:42;;;;;;;0.40;0.40;;;17.00;99.90;;;;;;5054983;28;20361;-70
2022/05/22 08:32:31;;;;;;;0.50;0.50;;;17.30;99.90;;;;;;5054801;28;20704;-73
2022/05/22 08:35:22;;;;;;;0.57;0.52;;;17.60;99.90;;;;;;5054359;28;20280;-71
2022/05/22 08:38:10;;;;;;;0.50;0.50;;;17.40;99.90;;;;;;5054827;28;20198;-70
2022/05/22 08:41:08;;;;;;;0.40;0.40;;;17.40;99.90;;;;;;5054302;28;20705;-72
2022/05/22 08:44:07;;;;;;;0.40;0.40;;;17.40;99.90;;;;;;5054767;28;20299;-70
2022/05/22 08:47:01;;;;;;;0.50;0.50;;;17.50;99.90;;;;;;5054807;28;20193;-73
2022/05/22 08:49:52;;;;;;;0.40;0.40;;;17.70;99.90;;;;;;5054115;28;20218;-71
2022/05/22 08:52:47;;;;;;;0.47;0.45;;;17.70;99.90;;;;;;5053904;28;20225;-70
2022/05/22 08:58:57;;;;;;;0.40;0.40;;;17.40;99.90;;;;;;5055989;28;20205;-70
2022/05/22 09:01:54;;;;;;;3.40;2.45;;;17.10;99.90;;;;;;5054243;28;20674;-70
2022/05/22 09:04:46;;;;;;;0.50;0.50;;;17.10;99.90;;;;;;5054521;28;20197;-70
2022/05/22 09:07:44;;;;;;;0.40;0.40;;;17.00;99.90;;;;;;5055135;28;20202;-69
2022/05/22 09:10:46;;;;;;;0.40;0.40;;;16.90;99.90;;;;;;5053870;28;20201;-69
2022/05/22 09:13:40;;;;;;;0.40;0.40;;;16.80;99.90;;;;;;5054397;28;20217;-72
2022/05/22 09:16:31;;;;;;;4.10;0.68;;;17.20;99.90;;;;;;5054342;28;20294;-71
2022/05/22 09:19:31;;;;;;;0.40;0.40;;;17.50;99.90;;;;;;5053944;28;20219;-70
2022/05/22 09:22:26;;;;;;;0.40;0.40;;;17.60;99.90;;;;;;5054065;28;20218;-70
2022/05/22 09:25:24;;;;;;;0.40;0.40;;;17.50;99.90;;;;;;5059481;28;20208;-69
2022/05/22 09:28:21;;;;;;;0.40;0.40;;;17.20;99.90;;;;;;5074704;28;20192;-72
2022/05/22 09:31:26;;;;;;;0.40;0.40;;;17.00;99.90;;;;;;5073964;28;20211;-73
2022/05/22 09:34:23;;;;;;;0.40;0.40;;;17.00;99.90;;;;;;5074407;28;20232;-69
2022/05/22 09:37:22;;;;;;;0.50;0.50;;;17.30;99.90;;;;;;5074474;28;20200;-69
2022/05/22 09:40:22;;;;;;;0.40;0.40;;;17.40;99.90;;;;;;5073565;28;20238;-69
2022/05/22 09:43:27;;;;;;;0.40;0.40;;;17.50;99.90;;;;;;5072036;28;20217;-70
2022/05/22 09:46:31;;;;;;;0.40;0.40;;;17.90;99.90;;;;;;5072869;28;20204;-73
2022/05/22 09:49:37;;;;;;;0.60;0.60;;;17.90;99.90;;;;;;5072512;28;20712;-71
2022/05/22 09:52:35;;;;;;;0.60;0.50;;;18.00;99.90;;;;;;5072422;28;20273;-70
2022/05/22 09:55:41;;;;;;;0.40;0.40;;;18.20;99.90;;;;;;5072583;28;20318;-72
2022/05/22 09:58:49;;;;;;;0.65;0.52;;;18.30;99.90;;;;;;5072869;28;20253;-71
2022/05/22 10:01:42;;;;;;;0.40;0.40;;;18.10;99.90;;;;;;5071832;28;20197;-72
2022/05/22 10:04:38;;;;;;;0.40;0.40;;;18.10;99.90;;;;;;5071400;28;20211;-71
2022/05/22 10:07:36;;;;;;;0.52;0.52;;;18.20;99.90;;;;;;5072608;28;20200;-72
2022/05/22 10:10:43;;;;;;;1.02;0.50;;;18.60;99.90;;;;;;5071576;28;20220;-70
2022/05/22 10:13:39;;;;;;;0.40;0.40;;;18.90;99.90;;;;;;5070848;28;20724;-70
2022/05/22 10:16:38;;;;;;;0.50;0.50;;;19.00;99.90;;;;;;5071688;28;20224;-70
2022/05/22 10:19:36;;;;;;;0.40;0.40;;;19.20;99.90;;;;;;5071092;28;20326;-71
2022/05/22 10:22:33;;;;;;;0.40;0.40;;;19.20;99.90;;;;;;5071462;28;20247;-71
2022/05/22 10:25:31;;;;;;;0.40;0.40;;;19.10;99.90;;;;;;5065922;28;20197;-71
2022/05/22 10:28:22;;;;;;;0.50;0.50;;;19.20;99.90;;;;;;5052171;28;20201;-70
2022/05/22 10:31:16;;;;;;;0.52;0.52;;;19.40;99.90;;;;;;5052190;28;20229;-72
2022/05/22 10:34:10;;;;;;;0.40;0.40;;;19.90;99.90;;;;;;5051891;28;20205;-72
2022/05/22 10:37:03;;;;;;;0.50;0.50;;;19.70;99.90;;;;;;5050899;28;20678;-73
2022/05/22 10:39:53;;;;;;;0.50;0.50;;;19.80;99.90;;;;;;5052786;28;20208;-69
2022/05/22 10:42:45;;;;;;;0.50;0.50;;;20.10;99.90;;;;;;5053440;28;20221;-71
2022/05/22 10:45:36;;;;;;;0.40;0.40;;;19.80;99.90;;;;;;5052497;28;20203;-71
2022/05/22 10:48:25;;;;;;;0.60;0.60;;;19.50;99.90;;;;;;5052573;28;20197;-72
2022/05/22 10:51:23;;;;;;;0.50;0.50;;;19.60;99.90;;;;;;5051965;28;20209;-69
2022/05/22 10:54:25;;;;;;;0.40;0.40;;;19.50;99.90;;;;;;5052317;28;20701;-71
2022/05/22 10:57:17;;;;;;;0.43;0.43;;;19.40;99.90;;;;;;5052364;28;20197;-70
2022/05/22 11:00:13;;;;;;;0.40;0.40;;;19.20;99.90;;;;;;5051724;28;20197;-70
2022/05/22 11:03:12;;;;;;;1.10;0.50;;;18.80;99.90;;;;;;5051715;28;20709;-73
2022/05/22 11:06:02;;;;;;;0.40;0.40;;;18.70;99.90;;;;;;5050884;28;20712;-71
2022/05/22 11:08:53;;;;;;;0.40;0.40;;;18.70;99.90;;;;;;5051395;28;20212;-69
2022/05/22 11:11:41;;;;;;;0.68;0.60;;;18.80;99.90;;;;;;5051012;28;20574;-71
2022/05/22 11:14:33;;;;;;;0.40;0.40;;;18.80;99.90;;;;;;5050228;28;20275;-71
2022/05/22 11:17:23;;;;;;;0.50;0.50;;;18.60;99.90;;;;;;5052029;28;20216;-72
2022/05/22 11:20:16;;;;;;;0.40;0.40;;;19.00;99.90;;;;;;5051671;28;20197;-70
2022/05/22 11:23:13;;;;;;;0.47;0.47;;;19.60;99.90;;;;;;5050768;28;20225;-69
2022/05/22 11:26:12;;;;;;;0.40;0.40;;;19.70;99.90;;;;;;5062928;28;20204;-72
2022/05/22 11:29:11;;;;;;;0.40;0.40;;;19.10;99.90;;;;;;5069922;28;20695;-72
2022/05/22 11:32:10;;;;;;;0.40;0.40;;;19.10;99.90;;;;;;5069474;28;20227;-69
2022/05/22 11:35:25;;;;;;;0.40;0.40;;;19.30;99.90;;;;;;5069359;28;20566;-70
2022/05/22 11:38:27;;;;;;;0.40;0.40;;;19.70;99.90;;;;;;5071052;28;20271;-71
2022/05/22 11:41:22;;;;;;;0.60;0.60;;;19.80;99.90;;;;;;5071170;28;20198;-70
2022/05/22 11:44:37;;;;;;;0.40;0.40;;;20.00;99.90;;;;;;5070137;28;20204;-71
2022/05/22 11:47:45;;;;;;;0.50;0.50;;;20.50;99.90;;;;;;5070687;28;20207;-70
2022/05/22 11:50:39;;;;;;;0.88;0.88;;;20.80;99.90;;;;;;5070506;28;20216;-70
2022/05/22 11:53:52;;;;;;;0.40;0.40;;;20.60;99.90;;;;;;5069601;28;20220;-70
2022/05/22 11:56:53;;;;;;;0.40;0.40;;;20.20;99.90;;;;;;5070274;28;20211;-70
2022/05/22 11:59:53;;;;;;;2.67;0.85;;;19.80;99.90;;;;;;5070164;28;20199;-69
2022/05/22 12:03:20;;;;;;;0.50;0.50;;;19.70;99.90;;;;;;5070164;28;20220;-70
2022/05/22 12:06:21;;;;;;;0.40;0.40;;;19.50;99.90;;;;;;5015666;28;20692;-69
2022/05/22 12:09:16;;;;;;;0.40;0.40;;;19.70;99.90;;;;;;5070971;28;20269;-68
2022/05/22 12:12:10;;;;;;;0.40;0.40;;;20.00;99.90;;;;;;5069361;28;20685;-70
2022/05/22 12:15:10;;;;;;;0.40;0.40;;;20.20;99.90;;;;;;5070758;28;20196;-69
2022/05/22 12:18:05;;;;;;;0.40;0.40;;;20.20;99.90;;;;;;5070483;28;20262;-69
2022/05/22 12:21:00;;;;;;;0.40;0.40;;;20.00;99.90;;;;;;5071591;28;20783;-69
2022/05/22 12:23:54;;;;;;;0.50;0.43;;;20.00;99.90;;;;;;5069912;28;20217;-70
2022/05/22 12:26:43;;;;;;;0.40;0.40;;;19.90;99.90;;;;;;5052381;28;20233;-72
2022/05/22 12:29:43;;;;;;;0.50;0.40;;;20.00;99.90;;;;;;5049905;28;20193;-71
2022/05/22 12:32:36;;;;;;;0.60;0.60;;;20.30;99.90;;;;;;5049449;28;20229;-71
2022/05/22 12:35:25;;;;;;;0.50;0.50;;;20.10;99.90;;;;;;5050189;28;20206;-73
2022/05/22 12:38:16;;;;;;;0.40;0.40;;;19.70;99.90;;;;;;5050317;28;20209;-71
2022/05/22 12:41:15;;;;;;;0.40;0.40;;;19.50;99.90;;;;;;5050235;28;20197;-70
2022/05/22 12:44:06;;;;;;;0.40;0.40;;;19.50;99.90;;;;;;5049930;28;20218;-70
2022/05/22 12:46:55;;;;;;;0.40;0.40;;;19.80;99.90;;;;;;5053795;28;20585;-69
2022/05/22 12:49:54;;;;;;;0.40;0.40;;;20.60;99.90;;;;;;5052927;28;20206;-70
2022/05/22 12:52:52;;;;;;;0.40;0.40;;;21.30;99.90;;;;;;5053562;28;20232;-68
2022/05/22 12:55:41;;;;;;;0.40;0.40;;;22.50;99.00;;;;;;5053996;28;20202;-69
2022/05/22 12:58:36;;;;;;;0.50;0.50;;;23.10;97.70;;;;;;5054422;28;20205;-70
2022/05/22 13:01:28;;;;;;;0.40;0.40;;;23.10;96.50;;;;;;5053682;28;20194;-70
2022/05/22 13:04:26;;;;;;;0.40;0.40;;;22.20;97.30;;;;;;5053902;28;20331;-69
2022/05/22 13:07:17;;;;;;;0.40;0.40;;;21.40;97.60;;;;;;5052636;28;20197;-69
2022/05/22 13:10:25;;;;;;;0.40;0.40;;;21.10;97.20;;;;;;5054691;28;20562;-70
2022/05/22 13:13:24;;;;;;;0.40;0.40;;;21.10;98.20;;;;;;5053378;28;20214;-71
2022/05/22 13:16:14;;;;;;;0.50;0.50;;;21.10;97.80;;;;;;5053295;28;20574;-69
2022/05/22 13:19:02;;;;;;;0.40;0.40;;;20.90;97.60;;;;;;5052575;28;20284;-70
2022/05/22 13:21:52;;;;;;;0.40;0.40;;;21.90;97.50;;;;;;5053359;28;20200;-70
2022/05/22 13:24:50;;;;;;;0.70;0.70;;;22.30;95.90;;;;;;5053590;28;20201;-70
2022/05/22 13:27:42;;;;;;;0.47;0.47;;;21.90;95.00;;;;;;5052603;28;20208;-70
2022/05/22 13:30:31;;;;;;;0.50;0.50;;;21.60;95.30;;;;;;5053810;28;20221;-69
2022/05/22 13:33:22;;;;;;;0.40;0.40;;;21.10;95.80;;;;;;5052853;28;20248;-69
2022/05/22 13:36:18;;;;;;;0.40;0.40;;;21.00;96.10;;;;;;5053762;28;20201;-69
2022/05/22 13:39:14;;;;;;;0.40;0.40;;;21.00;95.70;;;;;;5053967;28;20620;-69
2022/05/22 13:42:44;;;;;;;0.50;0.40;;;23.40;95.30;;;;;;5052842;28;20598;-69
2022/05/22 13:46:11;;;;;;;0.40;0.40;;;27.00;88.50;;;;;;5052175;28;20208;-69
2022/05/22 13:49:35;;;;;;;0.40;0.40;;;26.20;84.60;;;;;;5054713;28;20217;-69
2022/05/22 13:52:37;;;;;;;0.40;0.40;;;24.40;86.60;;;;;;5055011;28;20217;-70
2022/05/22 13:55:26;;;;;;;0.40;0.40;;;23.30;88.80;;;;;;5053284;28;20197;-68
2022/05/22 13:58:22;;;;;;;0.40;0.40;;;23.60;89.90;;;;;;5053759;28;20208;-68
2022/05/22 14:01:15;;;;;;;0.40;0.40;;;25.60;84.80;;;;;;5052661;28;20193;-68
2022/05/22 14:04:07;;;;;;;0.40;0.40;;;27.70;80.50;;;;;;5052084;28;20697;-69
2022/05/22 14:06:57;;;;;;;0.40;0.40;;;29.60;74.30;;;;;;5052997;28;20200;-68
2022/05/22 14:09:45;;;;;;;0.40;0.40;;;32.40;66.30;;;;;;5053075;28;20255;-68
2022/05/22 14:12:38;;;;;;;0.40;0.40;;;33.20;59.20;;;;;;5052552;28;20593;-69
2022/05/22 14:15:28;;;;;;;0.40;0.40;;;33.70;55.90;;;;;;5052958;28;20201;-69
2022/05/22 14:18:21;;;;;;;0.40;0.40;;;34.00;53.00;;;;;;5051831;28;20200;-69
2022/05/22 14:21:10;;;;;;;0.40;0.40;;;33.30;54.00;;;;;;5051649;28;20194;-69
2022/05/22 14:27:16;;;;;;;0.40;0.40;;;28.20;59.20;;;;;;5033639;28;20198;-68
2022/05/22 14:30:14;;;;;;;0.40;0.40;;;27.30;62.70;;;;;;5031358;28;20195;-68
2022/05/22 14:33:10;;;;;;;0.40;0.40;;;30.30;59.20;;;;;;5032297;28;20245;-68
2022/05/22 14:36:07;;;;;;;0.40;0.40;;;32.10;54.50;;;;;;5032000;28;20217;-68
2022/05/22 14:38:57;;;;;;;0.40;0.40;;;34.10;53.90;;;;;;5032480;28;20201;-69
2022/05/22 14:41:48;;;;;;;0.40;0.40;;;34.10;50.30;;;;;;5030469;28;20202;-68
2022/05/22 14:44:37;;;;;;;0.40;0.40;;;32.70;51.80;;;;;;5032032;28;20651;-68
2022/05/22 14:47:29;;;;;;;0.40;0.40;;;32.70;52.10;;;;;;5031089;28;20272;-68
2022/05/22 14:50:19;;;;;;;0.40;0.40;;;31.80;52.10;;;;;;5030952;28;20202;-68
2022/05/22 14:53:12;;;;;;;0.40;0.40;;;31.50;51.70;;;;;;5031403;28;20225;-68
2022/05/22 14:56:06;;;;;;;0.50;0.50;;;31.80;51.70;;;;;;5031866;28;20206;-68
2022/05/22 14:58:59;;;;;;;0.50;0.50;;;30.90;52.80;;;;;;5031080;28;20283;-68
2022/05/22 15:01:50;;;;;;;0.40;0.40;;;31.50;53.60;;;;;;5030689;28;20207;-68
2022/05/22 15:04:38;;;;;;;0.40;0.40;;;33.60;51.40;;;;;;5030373;28;20299;-69
2022/05/22 15:07:28;;;;;;;0.40;0.40;;;35.60;48.70;;;;;;5029751;28;20379;-69
2022/05/22 15:10:24;;;;;;;0.40;0.40;;;33.30;48.60;;;;;;5030497;28;20264;-68